createdAt,value
2023-03-29T00:01:50.254Z,3.72
2023-03-29T00:05:57.469Z,3.65
2023-03-29T00:10:00.210Z,2.78
2023-03-29T00:14:03.000Z,3.15
2023-03-29T00:18:05.881Z,3.45
2023-03-29T00:22:10.008Z,3.15
2023-03-29T00:30:16.184Z,4.60
2023-03-29T00:34:18.984Z,4.00
2023-03-29T00:38:23.069Z,3.65
2023-03-29T00:50:36.462Z,2.92
2023-03-29T00:54:41.299Z,4.35
2023-03-29T00:58:45.872Z,3.35
2023-03-29T01:02:54.568Z,4.28
2023-03-29T01:06:59.701Z,4.15
2023-03-29T01:11:08.246Z,5.80
2023-03-29T01:15:12.746Z,7.03
2023-03-29T01:19:21.451Z,4.03
2023-03-29T01:23:38.836Z,6.47
2023-03-29T01:27:52.748Z,4.32
2023-03-29T01:31:59.465Z,5.55
2023-03-29T01:36:06.337Z,6.43
2023-03-29T01:40:09.707Z,3.28
2023-03-29T01:44:18.452Z,2.85
2023-03-29T01:48:25.879Z,3.88
2023-03-29T01:52:34.845Z,4.35
2023-03-29T01:56:40.147Z,3.78
2023-03-29T02:00:45.240Z,5.00
2023-03-29T02:04:51.794Z,3.22
2023-03-29T02:08:55.785Z,4.18
2023-03-29T02:12:58.990Z,4.85
2023-03-29T02:17:16.642Z,2.97
2023-03-29T02:21:25.531Z,7.93
2023-03-29T02:25:28.441Z,4.15
2023-03-29T02:29:31.393Z,3.78
2023-03-29T02:33:39.471Z,7.60
2023-03-29T02:37:44.223Z,5.93
2023-03-29T02:41:48.653Z,4.22
2023-03-29T02:49:55.482Z,7.00
2023-03-29T02:54:01.981Z,5.60
2023-03-29T02:58:08.466Z,7.15
2023-03-29T03:02:13.801Z,4.40
2023-03-29T03:06:18.375Z,7.70
2023-03-29T03:10:21.272Z,5.95
2023-03-29T03:14:24.077Z,8.43
2023-03-29T03:18:27.692Z,7.18
2023-03-29T03:22:32.500Z,5.20
2023-03-29T03:26:36.257Z,5.70
2023-03-29T03:30:39.236Z,6.10
2023-03-29T03:34:41.915Z,5.70
2023-03-29T03:38:46.320Z,5.70
2023-03-29T03:46:51.698Z,6.38
2023-03-29T03:50:57.007Z,10.32
2023-03-29T03:55:02.835Z,6.15
2023-03-29T03:59:07.168Z,5.57
2023-03-29T04:07:13.151Z,5.93
2023-03-29T04:11:17.349Z,7.45
2023-03-29T04:15:20.392Z,6.10
2023-03-29T04:19:23.410Z,7.82
2023-03-29T04:23:26.174Z,7.07
2023-03-29T04:27:31.006Z,6.63
2023-03-29T04:31:33.922Z,6.45
2023-03-29T04:35:36.964Z,6.43
2023-03-29T04:39:39.834Z,5.72
2023-03-29T04:43:46.904Z,8.35
2023-03-29T04:47:49.757Z,6.68
2023-03-29T04:51:53.374Z,8.07
2023-03-29T04:55:57.980Z,10.48
2023-03-29T05:00:02.163Z,12.13
2023-03-29T05:04:05.881Z,12.98
2023-03-29T05:08:09.611Z,12.05
2023-03-29T05:12:12.352Z,19.38
2023-03-29T05:16:16.984Z,17.52
2023-03-29T05:20:19.946Z,13.77
2023-03-29T05:24:23.126Z,14.30
2023-03-29T05:28:26.407Z,12.80
2023-03-29T05:32:31.340Z,14.02
2023-03-29T05:36:34.569Z,13.80
2023-03-29T05:40:37.331Z,21.13
2023-03-29T05:44:40.055Z,21.88
2023-03-29T05:48:44.264Z,18.05
2023-03-29T05:52:47.940Z,15.23
2023-03-29T05:56:51.209Z,23.23
2023-03-29T06:00:53.995Z,19.75
2023-03-29T06:04:58.201Z,27.20
2023-03-29T06:09:02.331Z,27.20
2023-03-29T06:13:06.139Z,21.95
2023-03-29T06:17:09.015Z,26.95
2023-03-29T06:21:16.341Z,23.73
2023-03-29T06:25:19.822Z,27.63
2023-03-29T06:29:22.552Z,33.13
2023-03-29T06:33:25.406Z,30.65
2023-03-29T06:37:30.481Z,27.48
2023-03-29T06:41:33.156Z,35.78
2023-03-29T06:45:37.721Z,33.10
2023-03-29T06:49:40.714Z,30.35
2023-03-29T06:53:44.933Z,24.67
2023-03-29T06:57:48.087Z,20.58
2023-03-29T07:01:52.617Z,19.52
2023-03-29T07:06:01.431Z,15.68
2023-03-29T07:10:06.474Z,20.15
2023-03-29T07:14:09.802Z,16.58
2023-03-29T07:18:13.238Z,17.33
2023-03-29T07:22:16.439Z,15.65
2023-03-29T07:26:29.402Z,18.20
2023-03-29T07:30:33.174Z,14.35
2023-03-29T07:34:36.982Z,19.13
2023-03-29T07:38:40.145Z,18.20
2023-03-29T07:42:45.084Z,13.13
2023-03-29T07:46:48.421Z,12.02
2023-03-29T07:50:51.529Z,16.20
2023-03-29T07:54:54.256Z,14.43
2023-03-29T07:58:58.252Z,9.75
2023-03-29T08:03:02.048Z,12.10
2023-03-29T08:07:05.904Z,16.90
2023-03-29T08:11:10.144Z,18.38
2023-03-29T08:15:15.290Z,16.55
2023-03-29T08:19:18.367Z,12.70
2023-03-29T08:23:21.286Z,9.95
2023-03-29T08:27:24.181Z,13.73
2023-03-29T08:31:28.501Z,11.05
2023-03-29T08:35:31.651Z,12.25
2023-03-29T08:39:35.473Z,10.60
2023-03-29T08:43:50.489Z,11.02
2023-03-29T08:47:59.509Z,9.70
2023-03-29T08:52:04.617Z,8.30
2023-03-29T08:56:10.525Z,7.28
2023-03-29T09:00:21.668Z,8.60
2023-03-29T09:04:28.418Z,10.25
2023-03-29T09:08:31.506Z,10.80
2023-03-29T09:12:44.302Z,8.57
2023-03-29T09:16:52.955Z,9.13
2023-03-29T09:21:02.188Z,8.30
2023-03-29T09:25:11.661Z,10.45
2023-03-29T09:29:32.013Z,6.80
2023-03-29T09:33:42.782Z,7.55
2023-03-29T09:37:47.569Z,7.47
2023-03-29T09:41:52.813Z,8.98
2023-03-29T09:45:57.262Z,7.72
2023-03-29T09:50:04.337Z,8.02
2023-03-29T09:54:11.148Z,7.18
2023-03-29T09:58:17.056Z,8.18
2023-03-29T10:02:21.121Z,7.70
2023-03-29T10:06:26.835Z,6.32
2023-03-29T10:10:32.954Z,7.07
2023-03-29T10:14:38.347Z,7.68
2023-03-29T10:18:42.597Z,7.88
2023-03-29T10:22:50.112Z,4.03
2023-03-29T10:26:55.823Z,6.28
2023-03-29T10:31:00.720Z,5.50
2023-03-29T10:35:09.734Z,5.63
2023-03-29T10:39:15.558Z,12.68
2023-03-29T10:43:24.558Z,3.92
2023-03-29T10:47:28.086Z,5.57
2023-03-29T10:51:31.228Z,12.75
2023-03-29T10:59:41.963Z,5.50
2023-03-29T11:04:00.589Z,7.72
2023-03-29T11:08:14.974Z,6.07
2023-03-29T11:12:20.880Z,7.15
2023-03-29T11:16:30.765Z,5.78
2023-03-29T11:20:39.956Z,4.57
2023-03-29T11:24:53.719Z,2.70
2023-03-29T11:28:59.375Z,2.90
2023-03-29T11:33:13.905Z,4.28
2023-03-29T11:37:20.641Z,4.50
2023-03-29T11:41:25.773Z,3.10
2023-03-29T11:45:31.363Z,4.38
2023-03-29T11:49:39.533Z,4.13
2023-03-29T11:53:47.540Z,3.13
2023-03-29T11:57:54.020Z,4.40
2023-03-29T12:02:03.370Z,3.05
2023-03-29T12:06:14.419Z,2.22
2023-03-29T12:10:19.704Z,6.32
2023-03-29T12:14:28.094Z,5.60
2023-03-29T12:18:34.456Z,3.83
2023-03-29T12:22:39.103Z,5.75
2023-03-29T12:26:51.792Z,3.78
2023-03-29T12:31:00.193Z,3.47
2023-03-29T12:35:22.162Z,3.03
2023-03-29T12:43:32.464Z,5.00
2023-03-29T12:47:43.374Z,5.57
2023-03-29T12:51:46.474Z,6.95
2023-03-29T12:55:55.933Z,4.28
2023-03-29T13:00:12.341Z,3.88
2023-03-29T13:04:20.350Z,3.58
2023-03-29T13:08:24.571Z,2.53
2023-03-29T13:12:32.948Z,5.70
2023-03-29T13:16:36.972Z,9.30
2023-03-29T13:20:46.744Z,5.03
2023-03-29T13:25:08.285Z,4.28
2023-03-29T13:29:33.727Z,4.40
2023-03-29T13:33:46.285Z,4.30
2023-03-29T13:37:57.064Z,3.40
2023-03-29T13:42:09.825Z,4.53
2023-03-29T13:46:23.272Z,2.45
2023-03-29T13:50:34.633Z,2.40
2023-03-29T13:54:41.878Z,3.30
2023-03-29T13:58:48.170Z,2.80
2023-03-29T14:02:55.229Z,6.97
2023-03-29T14:06:58.942Z,5.85
2023-03-29T14:11:02.378Z,6.78
2023-03-29T14:15:07.472Z,4.30
2023-03-29T14:19:16.451Z,3.90
2023-03-29T14:23:22.297Z,5.57
2023-03-29T14:27:24.997Z,6.80
2023-03-29T14:31:31.705Z,5.00
2023-03-29T14:35:36.364Z,5.38
2023-03-29T14:39:41.011Z,4.00
2023-03-29T14:43:43.779Z,4.43
2023-03-29T14:47:47.493Z,4.20
2023-03-29T14:51:52.929Z,4.90
2023-03-29T14:55:56.773Z,4.78
2023-03-29T15:00:02.258Z,3.95
2023-03-29T15:04:07.204Z,3.08
2023-03-29T15:08:15.457Z,3.42
2023-03-29T15:12:18.695Z,4.40
2023-03-29T15:16:22.812Z,4.65
2023-03-29T15:20:27.333Z,3.75
2023-03-29T15:24:33.463Z,6.88
2023-03-29T15:28:37.277Z,5.68
2023-03-29T15:32:41.499Z,5.43
2023-03-29T15:36:46.645Z,5.38
2023-03-29T15:40:51.004Z,5.75
2023-03-29T15:44:56.375Z,5.45
2023-03-29T15:48:59.469Z,5.13
2023-03-29T15:53:14.159Z,4.72
2023-03-29T15:57:23.661Z,4.30
2023-03-29T16:01:33.813Z,3.67
2023-03-29T16:05:36.813Z,5.45
2023-03-29T16:09:39.768Z,4.35
2023-03-29T16:13:44.177Z,5.32
2023-03-29T16:17:47.307Z,5.35
2023-03-29T16:21:50.606Z,7.82
2023-03-29T16:25:53.480Z,4.97
2023-03-29T16:29:58.954Z,7.45
2023-03-29T16:34:01.817Z,3.78
2023-03-29T16:38:04.841Z,6.53
2023-03-29T16:42:07.611Z,5.53
2023-03-29T16:46:12.881Z,8.18
2023-03-29T16:50:18.109Z,4.43
2023-03-29T16:54:20.956Z,7.63
2023-03-29T16:58:24.181Z,5.82
2023-03-29T17:06:32.313Z,7.63
2023-03-29T17:10:35.013Z,5.50
2023-03-29T17:14:38.154Z,8.13
2023-03-29T17:22:45.154Z,4.50
2023-03-29T17:26:48.031Z,4.72
2023-03-29T17:30:50.980Z,6.13
2023-03-29T17:34:55.145Z,6.75
2023-03-29T17:43:02.940Z,7.65
2023-03-29T17:47:05.926Z,5.43
2023-03-29T17:51:10.368Z,2.97
2023-03-29T17:55:13.929Z,5.82
2023-03-29T17:59:16.691Z,4.70
2023-03-29T18:03:19.809Z,8.27
2023-03-29T18:07:23.995Z,3.92
2023-03-29T18:11:27.308Z,8.07
2023-03-29T18:15:30.050Z,7.35
2023-03-29T18:19:32.852Z,6.70
2023-03-29T18:23:39.754Z,6.63
2023-03-29T18:27:42.543Z,8.10
2023-03-29T18:31:45.997Z,7.07
2023-03-29T18:39:54.840Z,7.07
2023-03-29T18:44:00.124Z,7.35
2023-03-29T18:48:05.610Z,6.28
2023-03-29T18:52:09.102Z,8.43
2023-03-29T18:56:13.458Z,3.65
2023-03-29T19:00:17.567Z,4.15
2023-03-29T19:04:20.671Z,8.88
2023-03-29T19:08:23.916Z,5.57
2023-03-29T19:12:28.075Z,14.38
2023-03-29T19:16:31.064Z,11.40
2023-03-29T19:20:33.912Z,9.90
2023-03-29T19:24:36.808Z,10.70
2023-03-29T19:28:40.864Z,6.55
2023-03-29T19:32:43.632Z,6.95
2023-03-29T19:36:47.138Z,10.18
2023-03-29T19:40:51.553Z,8.40
2023-03-29T19:44:55.671Z,10.40
2023-03-29T19:48:59.819Z,9.20
2023-03-29T19:53:02.522Z,9.98
2023-03-29T19:57:07.353Z,13.07
2023-03-29T20:01:11.678Z,8.85
2023-03-29T20:05:16.306Z,8.90
2023-03-29T20:09:19.092Z,14.93
2023-03-29T20:13:31.261Z,11.98
2023-03-29T20:17:41.649Z,12.23
2023-03-29T20:21:44.488Z,8.50
2023-03-29T20:25:47.996Z,12.50
2023-03-29T20:29:50.763Z,10.40
2023-03-29T20:33:57.059Z,9.05
2023-03-29T20:38:00.713Z,12.15
2023-03-29T20:42:03.521Z,13.65
2023-03-29T20:46:14.386Z,11.60
2023-03-29T20:50:20.706Z,8.30
2023-03-29T20:54:23.798Z,8.63
2023-03-29T20:58:27.319Z,7.90
2023-03-29T21:02:30.161Z,7.00
2023-03-29T21:06:34.357Z,6.22
2023-03-29T21:10:37.599Z,7.57
2023-03-29T21:14:40.367Z,10.25
2023-03-29T21:18:43.491Z,6.65
2023-03-29T21:22:47.677Z,8.57
2023-03-29T21:26:51.125Z,10.05
2023-03-29T21:30:54.031Z,9.55
2023-03-29T21:34:56.793Z,6.60
2023-03-29T21:39:01.263Z,13.68
2023-03-29T21:43:04.076Z,10.82
2023-03-29T21:47:06.863Z,9.05
2023-03-29T21:51:10.072Z,11.70
2023-03-29T21:55:14.531Z,8.57
2023-03-29T21:59:17.404Z,13.27
2023-03-29T22:03:20.437Z,12.20
2023-03-29T22:07:28.046Z,12.98
2023-03-29T22:11:32.549Z,16.83
2023-03-29T22:15:36.065Z,13.65
2023-03-29T22:19:39.879Z,20.75
2023-03-29T22:23:43.549Z,15.50
2023-03-29T22:27:49.243Z,14.63
2023-03-29T22:31:52.339Z,18.85
2023-03-29T22:35:55.157Z,12.23
2023-03-29T22:39:57.990Z,12.05
2023-03-29T22:44:02.400Z,13.10
2023-03-29T22:48:05.665Z,16.85
2023-03-29T22:52:08.859Z,14.85
2023-03-29T22:56:11.562Z,8.73
2023-03-29T23:00:17.546Z,17.67
2023-03-29T23:04:20.482Z,14.00
2023-03-29T23:08:23.621Z,9.30
2023-03-29T23:12:27.150Z,15.32
2023-03-29T23:16:31.706Z,16.00
2023-03-29T23:20:35.382Z,17.52
2023-03-29T23:24:38.207Z,10.27
2023-03-29T23:28:41.068Z,13.27
2023-03-29T23:32:45.706Z,12.57
2023-03-29T23:36:48.481Z,13.98
2023-03-29T23:40:55.382Z,13.02
2023-03-29T23:44:58.173Z,15.15
2023-03-29T23:49:02.436Z,24.05
2023-03-29T23:53:05.237Z,12.60
2023-03-29T23:57:08.116Z,10.57
